Time;durP1;ratioP1;P1;durP2;ratioP2;P2;SDS_P1;SDS_P2;PMS_P1;PMS_P2;Temp;Humidity;BMP_temperature;BMP_pressure;BME280_temperature;BME280_humidity;BME280_pressure;Samples;Min_cycle;Max_cycle;Signal;HPM_P1;HPM_P2
2021/03/28 00:01:12;;;;;;;12.82;5.62;;;;;;;7.19;75.06;100929.11;1673263;84;21255;-73
2021/03/28 00:03:49;;;;;;;14.45;5.22;;;;;;;7.24;74.98;100927.91;1669012;84;21246;-72
2021/03/28 00:06:22;;;;;;;11.93;5.28;;;;;;;7.12;75.04;100944.95;1680381;83;21791;-72
2021/03/28 00:09:17;;;;;;;11.68;5.42;;;;;;;7.17;75.23;100940.19;1669854;84;21211;-72
2021/03/28 00:12:03;;;;;;;14.03;6.08;;;;;;;7.22;75.13;100945.09;1641684;84;21248;-73
2021/03/28 00:14:43;;;;;;;14.10;6.12;;;;;;;7.12;75.48;100954.63;1677564;83;21238;-73
2021/03/28 00:17:41;;;;;;;13.40;6.17;;;;;;;7.09;75.58;100954.86;1672909;84;21234;-72
2021/03/28 00:20:21;;;;;;;13.85;6.65;;;;;;;7.01;75.92;100967.24;1673083;84;22542;-71
2021/03/28 00:23:14;;;;;;;12.85;6.00;;;;;;;6.93;76.35;100938.06;1672255;84;21251;-72
2021/03/28 00:26:07;;;;;;;17.55;6.95;;;;;;;6.95;76.43;100967.69;1694342;83;21234;-71
2021/03/28 00:28:45;;;;;;;14.05;7.00;;;;;;;6.79;77.02;100954.82;1699287;83;22134;-72
2021/03/28 00:31:33;;;;;;;15.25;6.85;;;;;;;6.80;77.30;100949.46;1672687;84;21240;-73
2021/03/28 00:34:37;;;;;;;12.13;6.75;;;;;;;6.83;77.35;100932.17;1667748;84;21681;-71
2021/03/28 00:37:11;;;;;;;15.50;7.30;;;;;;;6.89;77.25;100945.82;1696638;83;21194;-72
2021/03/28 00:40:00;;;;;;;19.37;7.58;;;;;;;6.76;77.50;100947.20;1675957;84;21536;-71
2021/03/28 00:42:33;;;;;;;14.73;7.33;;;;;;;6.60;77.83;100940.89;1655429;84;21534;-73
2021/03/28 00:45:26;;;;;;;14.70;7.60;;;;;;;6.65;77.99;100962.41;1668885;84;21278;-73
2021/03/28 00:48:13;;;;;;;15.10;7.72;;;;;;;6.52;78.20;100957.67;1671675;84;21187;-73
2021/03/28 00:50:46;;;;;;;12.65;7.12;;;;;;;6.49;78.13;100988.06;1715946;81;21190;-72
2021/03/28 00:53:15;;;;;;;17.55;7.92;;;;;;;6.54;78.12;100962.33;1677451;84;21544;-72
2021/03/28 00:56:11;;;;;;;15.32;7.45;;;;;;;6.41;78.56;100975.00;1648434;84;21505;-72
2021/03/28 00:59:01;;;;;;;17.35;8.15;;;;;;;6.30;78.96;100951.33;1663868;84;21274;-72
2021/03/28 01:01:34;;;;;;;14.30;7.60;;;;;;;6.38;78.69;100958.17;1695183;83;21278;-72
2021/03/28 01:04:34;;;;;;;15.68;7.47;;;;;;;6.32;78.84;100942.86;1647854;84;22457;-71
2021/03/28 01:07:02;;;;;;;17.30;7.70;;;;;;;6.39;78.50;100953.78;1663770;84;21704;-70
2021/03/28 01:10:25;;;;;;;15.50;7.60;;;;;;;6.28;78.51;100967.66;1660072;83;21259;-72
2021/03/28 01:13:30;;;;;;;15.00;7.60;;;;;;;6.31;78.56;100968.75;1669591;84;21170;-72
2021/03/28 01:16:16;;;;;;;16.90;7.65;;;;;;;6.34;78.30;100971.16;1669482;84;21985;-72
2021/03/28 01:19:29;;;;;;;18.70;7.70;;;;;;;6.26;78.38;100964.28;1658345;85;21282;-73
2021/03/28 01:22:11;;;;;;;13.62;6.90;;;;;;;6.35;78.07;100958.39;1688215;83;21830;-72
2021/03/28 01:24:51;;;;;;;16.15;7.50;;;;;;;6.30;78.01;100968.38;1635082;86;22987;-72
2021/03/28 01:27:37;;;;;;;13.80;6.87;;;;;;;6.30;78.11;100965.75;1660377;84;21176;-72
2021/03/28 01:30:13;;;;;;;14.90;7.53;;;;;;;6.34;77.82;100964.60;1687370;83;21363;-71
2021/03/28 01:32:51;;;;;;;16.20;7.37;;;;;;;6.34;77.70;100961.98;1707141;82;21251;-72
2021/03/28 01:35:25;;;;;;;13.28;6.78;;;;;;;6.38;77.40;100964.73;1733489;81;21218;-72
2021/03/28 01:38:13;;;;;;;17.73;7.17;;;;;;;6.43;77.16;100966.58;1724679;81;21341;-72
2021/03/28 01:40:53;;;;;;;12.73;6.58;;;;;;;6.69;76.26;100959.09;1722363;81;21646;-72
2021/03/28 01:43:39;;;;;;;13.32;6.90;;;;;;;6.75;75.81;100971.28;1726048;81;22362;-71
2021/03/28 01:46:32;;;;;;;13.90;7.08;;;;;;;6.61;76.06;100971.45;1728370;81;21266;-72
2021/03/28 01:49:01;;;;;;;19.62;7.12;;;;;;;6.60;75.89;100968.45;1729784;81;21655;-73
2021/03/28 01:52:05;;;;;;;13.03;6.85;;;;;;;6.57;75.89;100974.77;1709284;81;21223;-72
2021/03/28 01:55:01;;;;;;;18.52;7.08;;;;;;;6.45;76.18;100976.95;1724231;81;21767;-72
2021/03/28 01:57:39;;;;;;;12.82;5.97;;;;;;;6.45;76.37;100983.03;1722441;81;21247;-72
2021/03/28 02:00:26;;;;;;;;;;;;;;;6.40;76.35;100993.03;1723519;81;21229;-72
2021/03/28 02:03:26;;;;;;;12.63;6.72;;;;;;;6.27;76.70;100996.13;1726338;81;20286;-73
2021/03/28 02:06:43;;;;;;;12.73;6.10;;;;;;;6.21;76.97;100996.56;1721543;81;21107;-73
2021/03/28 02:09:56;;;;;;;13.80;6.78;;;;;;;6.14;77.27;101001.85;1711210;82;21191;-72
2021/03/28 02:12:53;;;;;;;14.10;6.55;;;;;;;6.06;77.45;101002.38;1715221;82;21453;-71
2021/03/28 02:15:46;;;;;;;15.40;5.92;;;;;;;6.03;77.53;101003.91;1700057;82;21242;-71
2021/03/28 02:18:29;;;;;;;15.93;6.70;;;;;;;6.01;77.42;101010.59;1699841;82;21253;-71
2021/03/28 02:21:26;;;;;;;14.73;5.87;;;;;;;5.85;77.94;101005.51;1711722;82;21268;-71
2021/03/28 02:24:02;;;;;;;;;;;;;;;5.94;77.52;101001.43;1724024;82;21221;-71
2021/03/28 02:26:39;;;;;;;13.38;5.58;;;;;;;5.90;77.51;101005.20;1714480;82;21352;-71
2021/03/28 02:29:20;;;;;;;15.55;6.17;;;;;;;5.87;77.45;101000.16;1724460;82;21194;-71
2021/03/28 02:32:36;;;;;;;15.20;6.10;;;;;;;5.84;77.27;100995.12;1709124;82;21699;-71
2021/03/28 02:35:37;;;;;;;12.80;5.30;;;;;;;5.78;77.30;101008.65;1666452;84;21197;-72
2021/03/28 02:38:23;;;;;;;11.80;5.78;;;;;;;5.69;77.27;101015.38;1717050;81;21624;-72
2021/03/28 02:41:06;;;;;;;16.67;5.60;;;;;;;5.65;77.35;101012.09;1721420;82;21670;-72
2021/03/28 02:43:41;;;;;;;14.35;5.72;;;;;;;5.68;77.26;101011.89;1716687;82;21379;-72
2021/03/28 02:46:45;;;;;;;15.43;5.40;;;;;;;5.67;77.20;101005.44;1710240;82;21243;-72
2021/03/28 02:49:55;;;;;;;12.28;6.00;;;;;;;5.59;77.27;101007.27;1713587;82;21210;-72
2021/03/28 02:53:02;;;;;;;13.93;5.50;;;;;;;5.54;77.36;101005.44;1725010;82;21175;-72
2021/03/28 02:55:39;;;;;;;15.15;5.90;;;;;;;5.61;77.26;101021.13;1714961;82;21273;-71
2021/03/28 02:58:44;;;;;;;11.78;5.60;;;;;;;5.55;77.56;101020.22;1714499;82;25193;-72
2021/03/28 03:01:51;;;;;;;15.50;5.80;;;;;;;5.65;77.23;101019.13;1713456;82;21626;-71
2021/03/28 03:04:28;;;;;;;14.58;5.55;;;;;;;5.54;77.39;101023.77;1691436;82;21237;-73
2021/03/28 03:07:15;;;;;;;13.22;6.05;;;;;;;5.39;77.87;101021.69;1697753;81;21222;-72
2021/03/28 03:10:11;;;;;;;14.13;6.22;;;;;;;5.53;77.54;101023.39;1695850;84;21222;-71
2021/03/28 03:12:51;;;;;;;12.75;5.40;;;;;;;5.41;77.75;101027.69;1696729;82;21263;-72
2021/03/28 03:15:37;;;;;;;15.90;6.20;;;;;;;5.34;78.16;101031.63;1695816;84;21302;-72
2021/03/28 03:18:27;;;;;;;17.98;6.80;;;;;;;5.29;78.33;101035.86;1697255;84;21360;-71
2021/03/28 03:21:32;;;;;;;15.43;6.12;;;;;;;5.16;78.80;101022.73;1696453;83;21246;-72
2021/03/28 03:24:35;;;;;;;16.02;6.55;;;;;;;5.22;78.79;101024.13;1695468;83;22031;-72
2021/03/28 03:27:29;;;;;;;13.13;6.22;;;;;;;5.23;78.75;101024.95;1695519;82;21459;-73
2021/03/28 03:30:07;;;;;;;15.78;6.30;;;;;;;5.14;78.48;100997.58;1697485;83;21206;-71
2021/03/28 03:32:51;;;;;;;;;;;;;;;5.23;78.82;101036.73;1695834;82;21227;-72
2021/03/28 03:36:04;;;;;;;17.02;7.42;;;;;;;5.18;79.01;101042.27;1698276;84;20390;-72
2021/03/28 03:39:11;;;;;;;17.80;7.22;;;;;;;5.18;79.17;101043.58;1696486;83;21621;-72
2021/03/28 03:42:15;;;;;;;;;;;;;;;4.91;80.09;101050.10;1698795;84;21183;-72
2021/03/28 03:45:25;;;;;;;17.55;8.30;;;;;;;4.97;80.10;101061.05;1697006;84;20301;-75
2021/03/28 03:48:14;;;;;;;16.85;7.95;;;;;;;4.78;80.71;101061.81;1695685;84;21223;-72
2021/03/28 03:50:55;;;;;;;19.12;8.28;;;;;;;4.80;80.77;101071.71;1700117;82;21210;-73
2021/03/28 03:53:59;;;;;;;19.15;8.93;;;;;;;4.66;81.10;101070.81;1654883;85;21823;-72
2021/03/28 03:56:49;;;;;;;17.62;8.30;;;;;;;4.65;81.34;101070.91;1668541;84;21243;-72
2021/03/28 03:59:38;;;;;;;16.42;7.97;;;;;;;4.58;81.63;101076.14;1665116;85;21743;-73
2021/03/28 04:02:31;;;;;;;16.42;8.33;;;;;;;4.57;81.49;101095.38;1658765;84;21223;-73
2021/03/28 04:05:06;;;;;;;18.57;8.25;;;;;;;4.54;81.62;101092.50;1657998;84;21196;-73
2021/03/28 04:08:09;;;;;;;17.95;8.38;;;;;;;4.54;81.64;101095.11;1659559;84;21271;-73
2021/03/28 04:10:53;;;;;;;22.95;8.88;;;;;;;4.55;81.66;101088.09;1637225;85;21935;-72
2021/03/28 04:13:39;;;;;;;19.17;8.80;;;;;;;4.51;82.02;101099.70;1667412;84;21225;-73
2021/03/28 04:16:37;;;;;;;16.73;7.92;;;;;;;4.43;82.14;101097.08;1651464;85;21503;-72
2021/03/28 04:19:26;;;;;;;19.80;8.65;;;;;;;4.53;81.87;101111.73;1654466;85;21252;-72
2021/03/28 04:21:58;;;;;;;20.95;7.85;;;;;;;4.52;81.74;101113.96;1654772;85;22035;-72
2021/03/28 04:24:49;;;;;;;21.27;8.40;;;;;;;4.51;81.89;101124.07;1663446;86;21795;-72
2021/03/28 04:27:42;;;;;;;20.75;8.50;;;;;;;4.45;82.06;101127.05;1697677;83;21171;-72
2021/03/28 04:30:40;;;;;;;22.85;8.73;;;;;;;4.45;82.17;101124.44;1698570;82;21227;-72
2021/03/28 04:33:44;;;;;;;21.15;8.53;;;;;;;4.30;82.73;101132.28;1603748;89;21360;-72
2021/03/28 04:36:35;;;;;;;18.95;8.58;;;;;;;4.46;82.37;101130.05;1604632;87;21383;-72
2021/03/28 04:39:40;;;;;;;19.90;8.10;;;;;;;4.44;82.46;101135.83;1674759;83;21262;-72
2021/03/28 04:42:26;;;;;;;16.62;8.35;;;;;;;4.43;82.56;101132.86;1697318;82;21230;-71
2021/03/28 04:45:44;;;;;;;21.37;8.80;;;;;;;4.41;82.58;101135.56;1696329;84;21256;-72
2021/03/28 04:48:15;;;;;;;16.00;7.58;;;;;;;4.29;83.03;101142.35;1696142;82;21261;-71
2021/03/28 04:51:30;;;;;;;17.52;8.13;;;;;;;4.46;82.49;101131.36;1698299;82;22200;-71
2021/03/28 04:54:27;;;;;;;16.62;8.40;;;;;;;4.51;82.09;101138.94;1670348;82;21231;-71
2021/03/28 04:57:23;;;;;;;17.85;8.15;;;;;;;4.60;81.82;101147.05;1698867;84;25294;-71
2021/03/28 05:00:20;;;;;;;17.67;8.78;;;;;;;4.64;81.63;101142.47;1696945;83;21485;-71
2021/03/28 05:03:24;;;;;;;17.95;8.88;;;;;;;4.66;81.54;101154.53;1699871;82;21244;-72
2021/03/28 05:06:25;;;;;;;21.40;8.13;;;;;;;4.68;81.46;101153.97;1694496;83;21541;-71
2021/03/28 05:09:00;;;;;;;17.40;8.40;;;;;;;4.66;81.14;101154.53;1648963;86;21207;-71
2021/03/28 05:11:57;;;;;;;22.00;9.85;;;;;;;4.64;81.26;101157.69;1640494;86;21266;-71
2021/03/28 05:14:50;;;;;;;18.12;7.97;;;;;;;4.57;81.30;101185.17;1640526;86;21187;-72
2021/03/28 05:17:57;;;;;;;20.92;8.43;;;;;;;4.63;81.18;101180.88;1650415;86;21270;-71
2021/03/28 05:20:31;;;;;;;18.60;8.48;;;;;;;4.66;80.77;101170.23;1642394;86;22371;-71
2021/03/28 05:23:39;;;;;;;18.75;9.10;;;;;;;4.62;81.04;101171.81;1612147;86;21808;-72
2021/03/28 05:26:50;;;;;;;16.80;7.72;;;;;;;4.76;80.75;101182.76;1640354;86;21797;-73
2021/03/28 05:30:02;;;;;;;17.57;8.63;;;;;;;4.92;80.30;101187.41;1639832;86;21238;-72
2021/03/28 05:33:05;;;;;;;21.42;8.90;;;;;;;4.84;80.27;101189.19;1640953;86;21226;-72
2021/03/28 05:36:05;;;;;;;19.42;8.35;;;;;;;4.92;79.83;101207.52;1641674;86;22499;-70
2021/03/28 05:38:51;;;;;;;16.67;8.18;;;;;;;5.00;79.62;101199.59;1647179;85;21542;-72
2021/03/28 05:41:40;;;;;;;14.85;7.40;;;;;;;5.09;79.48;101218.27;1606232;88;21684;-70
2021/03/28 05:44:48;;;;;;;16.77;7.97;;;;;;;5.13;79.38;101209.30;1647931;85;21226;-71
2021/03/28 05:47:53;;;;;;;14.28;6.87;;;;;;;5.21;79.08;101209.66;1612696;88;21949;-73
2021/03/28 05:50:56;;;;;;;17.82;8.00;;;;;;;5.38;78.81;101211.23;1618125;87;22585;-72
2021/03/28 05:53:53;;;;;;;18.02;7.90;;;;;;;5.23;78.81;101226.11;1634693;86;22258;-71
2021/03/28 05:57:01;;;;;;;16.20;7.55;;;;;;;5.39;78.53;101220.30;1641123;86;21275;-72
2021/03/28 06:00:00;;;;;;;17.55;7.85;;;;;;;5.47;78.07;101222.89;1647899;86;21250;-72
2021/03/28 06:02:57;;;;;;;16.02;7.80;;;;;;;5.32;78.35;101236.02;1609973;86;21273;-72
2021/03/28 06:06:13;;;;;;;14.30;7.90;;;;;;;5.37;78.38;101231.32;1655319;85;21454;-72
2021/03/28 06:09:24;;;;;;;18.73;7.95;;;;;;;5.22;78.93;101232.30;1640874;86;21245;-72
2021/03/28 06:12:29;;;;;;;17.10;8.35;;;;;;;5.36;78.88;101221.80;1627262;86;21303;-72
2021/03/28 06:15:10;;;;;;;13.05;7.35;;;;;;;5.39;78.17;101229.47;1682739;83;21274;-72
2021/03/28 06:18:02;;;;;;;18.67;7.85;;;;;;;5.37;78.49;101231.32;1685918;83;21182;-71
2021/03/28 06:20:54;;;;;;;13.55;7.42;;;;;;;5.48;78.37;101237.68;1686060;83;21463;-72
2021/03/28 06:23:46;;;;;;;14.70;7.20;;;;;;;5.26;78.56;101235.09;1685563;83;21215;-71
2021/03/28 06:26:59;;;;;;;17.02;7.22;;;;;;;5.32;78.45;101249.11;1685643;83;21203;-72
2021/03/28 06:30:06;;;;;;;15.50;6.95;;;;;;;5.35;78.24;101254.16;1688377;83;21594;-71
2021/03/28 06:32:59;;;;;;;17.12;7.35;;;;;;;5.37;78.32;101249.66;1687705;83;21271;-73
2021/03/28 06:35:52;;;;;;;16.20;7.30;;;;;;;5.33;78.49;101253.42;1685551;83;21253;-71
2021/03/28 06:38:47;;;;;;;19.00;8.23;;;;;;;5.38;78.42;101265.76;1648760;83;21231;-70
2021/03/28 06:41:35;;;;;;;16.48;7.78;;;;;;;5.24;78.81;101269.70;1687500;83;21219;-72
2021/03/28 06:44:35;;;;;;;17.05;8.23;;;;;;;5.25;78.83;101270.09;1686597;83;21136;-73
2021/03/28 06:47:27;;;;;;;16.15;7.67;;;;;;;5.30;78.65;101269.77;1686142;83;21176;-73
2021/03/28 06:50:33;;;;;;;20.75;7.92;;;;;;;5.50;78.27;101275.09;1686894;83;22176;-73
2021/03/28 06:53:19;;;;;;;17.10;7.90;;;;;;;5.32;78.54;101275.30;1692848;83;21255;-72
2021/03/28 06:55:45;;;;;;;15.98;7.70;;;;;;;5.16;78.95;101295.52;1689492;83;21203;-71
2021/03/28 06:58:56;;;;;;;16.87;7.83;;;;;;;5.33;78.91;101277.00;1685671;83;21247;-72
2021/03/28 07:02:02;;;;;;;19.25;8.00;;;;;;;5.16;79.57;101287.67;1686782;83;21195;-72
2021/03/28 07:04:57;;;;;;;18.17;8.10;;;;;;;5.22;79.43;101295.16;1690065;83;21231;-72
2021/03/28 07:08:12;;;;;;;14.80;7.72;;;;;;;5.40;79.01;101283.52;1589185;87;21266;-72
2021/03/28 07:11:17;;;;;;;16.73;7.97;;;;;;;5.47;78.66;101281.39;1724466;81;21174;-72
2021/03/28 07:14:06;;;;;;;15.70;7.75;;;;;;;5.50;78.82;101288.20;1724644;81;21204;-71
2021/03/28 07:17:16;;;;;;;17.00;8.83;;;;;;;5.51;78.63;101287.27;1722194;81;21181;-72
2021/03/28 07:20:08;;;;;;;15.63;8.63;;;;;;;5.78;77.94;101293.02;1721131;81;21343;-72
2021/03/28 07:23:28;;;;;;;15.90;8.45;;;;;;;5.79;78.14;101281.61;1719159;81;21543;-72
2021/03/28 07:26:08;;;;;;;16.10;8.30;;;;;;;5.68;78.42;101281.81;1715337;81;21483;-72
2021/03/28 07:29:11;;;;;;;15.78;8.00;;;;;;;5.69;78.06;101274.33;1717030;81;21651;-71
2021/03/28 07:32:04;;;;;;;15.55;7.75;;;;;;;5.73;77.54;101300.73;1680222;81;21226;-72
2021/03/28 07:35:12;;;;;;;17.95;8.03;;;;;;;5.80;77.46;101299.03;1695429;81;21242;-71
2021/03/28 07:38:08;;;;;;;18.87;8.75;;;;;;;5.86;77.49;101294.72;1722168;81;21232;-72
2021/03/28 07:40:58;;;;;;;14.65;8.10;;;;;;;5.85;77.42;101311.37;1683417;81;21740;-72
2021/03/28 07:43:43;;;;;;;11.93;7.05;;;;;;;6.09;77.17;101301.97;1694087;81;21118;-73
2021/03/28 07:46:51;;;;;;;17.12;8.80;;;;;;;6.02;77.25;101311.16;1723457;81;21195;-72
2021/03/28 07:49:39;;;;;;;19.30;8.90;;;;;;;6.00;76.77;101305.67;1727153;81;21512;-72
2021/03/28 07:52:22;;;;;;;14.50;8.15;;;;;;;6.25;76.36;101302.30;1724254;81;21205;-72
2021/03/28 07:55:24;;;;;;;16.15;8.73;;;;;;;6.15;76.37;101311.69;1705186;81;21201;-73
2021/03/28 07:58:18;;;;;;;16.52;8.48;;;;;;;6.11;76.43;101311.89;1722205;81;21601;-73
2021/03/28 08:01:07;;;;;;;17.67;8.33;;;;;;;6.07;76.05;101316.95;1722936;81;21221;-74
2021/03/28 08:04:30;;;;;;;15.55;8.95;;;;;;;6.24;75.79;101312.41;1720502;81;21209;-74
2021/03/28 08:07:19;;;;;;;16.60;8.30;;;;;;;6.44;75.33;101314.56;1713644;81;21322;-73
2021/03/28 08:09:59;;;;;;;15.43;7.95;;;;;;;6.43;75.22;101317.29;1722192;82;21556;-72
2021/03/28 08:12:59;;;;;;;13.48;8.15;;;;;;;6.41;73.67;101327.05;1715604;82;21173;-73
2021/03/28 08:15:36;;;;;;;16.02;8.20;;;;;;;6.38;74.12;101325.46;1720505;82;21187;-71
2021/03/28 08:18:33;;;;;;;15.32;8.00;;;;;;;6.35;74.33;101330.08;1684337;82;21239;-72
2021/03/28 08:21:42;;;;;;;13.45;7.83;;;;;;;6.36;74.01;101344.41;1719549;82;21193;-71
2021/03/28 08:24:47;;;;;;;12.47;7.53;;;;;;;6.31;73.87;101342.56;1736111;80;21302;-75
2021/03/28 08:27:57;;;;;;;14.70;8.48;;;;;;;6.25;73.68;101336.40;1713212;82;21239;-71
2021/03/28 08:30:33;;;;;;;14.23;7.53;;;;;;;6.28;73.83;101340.14;1717279;82;21187;-74
2021/03/28 08:33:55;;;;;;;14.53;8.13;;;;;;;6.18;74.03;101356.91;1718935;82;21981;-77
2021/03/28 08:36:49;;;;;;;14.05;7.58;;;;;;;6.29;73.27;101349.67;1711835;82;21199;-73
2021/03/28 08:40:05;;;;;;;17.55;8.00;;;;;;;6.42;72.94;101342.70;1713259;82;21331;-73
2021/03/28 08:43:16;;;;;;;17.40;8.50;;;;;;;6.59;72.14;101335.03;1715479;82;21248;-73
2021/03/28 08:46:25;;;;;;;14.70;7.47;;;;;;;6.53;72.72;101333.30;1720895;82;21684;-73
2021/03/28 08:49:36;;;;;;;16.32;7.80;;;;;;;6.60;72.09;101348.98;1715646;82;21651;-71
2021/03/28 08:52:28;;;;;;;13.62;6.80;;;;;;;6.42;71.48;101379.44;1714527;82;21682;-74
2021/03/28 08:55:28;;;;;;;14.80;7.30;;;;;;;6.45;70.74;101358.24;1714291;82;21486;-73
2021/03/28 08:58:05;;;;;;;14.85;7.08;;;;;;;6.74;70.47;101352.88;1714709;82;21271;-75
2021/03/28 09:00:40;;;;;;;16.27;8.18;;;;;;;6.90;69.76;101359.71;1713972;82;21570;-72
2021/03/28 09:03:17;;;;;;;12.85;7.42;;;;;;;6.57;70.53;101374.12;1718410;82;21241;-74
2021/03/28 09:05:53;;;;;;;15.40;7.30;;;;;;;6.55;70.56;101347.98;1724694;82;21182;-73
2021/03/28 09:08:45;;;;;;;14.50;7.70;;;;;;;6.62;70.35;101369.44;1715182;82;21213;-72
2021/03/28 09:11:56;;;;;;;14.58;7.22;;;;;;;6.66;70.69;101378.77;1714642;81;21206;-73
2021/03/28 09:15:09;;;;;;;16.27;7.35;;;;;;;6.59;70.96;101382.77;1684080;82;21200;-73
2021/03/28 09:17:46;;;;;;;11.53;6.95;;;;;;;6.50;71.43;101370.23;1715643;82;21243;-74
2021/03/28 09:20:56;;;;;;;14.53;7.20;;;;;;;6.60;71.11;101380.03;1711597;82;21237;-74
2021/03/28 09:23:36;;;;;;;20.82;8.90;;;;;;;6.65;71.18;101371.38;1709495;82;21206;-74
2021/03/28 09:26:22;;;;;;;13.90;7.28;;;;;;;6.74;71.26;101375.20;1719119;82;21203;-75
2021/03/28 09:29:34;;;;;;;10.70;7.00;;;;;;;6.74;70.97;101374.34;1725048;82;21238;-73
2021/03/28 09:32:11;;;;;;;14.07;7.25;;;;;;;6.76;70.81;101370.67;1719307;82;21375;-72
2021/03/28 09:35:04;;;;;;;16.40;7.95;;;;;;;6.76;71.32;101373.30;1711330;82;21235;-72
2021/03/28 09:37:54;;;;;;;14.28;8.10;;;;;;;6.86;71.39;101381.88;1723590;82;21235;-72
2021/03/28 09:40:48;;;;;;;18.70;8.40;;;;;;;6.96;71.08;101381.17;1737438;80;21220;-72
2021/03/28 09:43:37;;;;;;;13.78;7.37;;;;;;;7.06;70.76;101380.08;1694163;82;21297;-72
2021/03/28 09:46:34;;;;;;;14.03;6.97;;;;;;;7.05;70.44;101378.38;1722110;82;21244;-73
2021/03/28 09:49:33;;;;;;;16.50;7.10;;;;;;;7.15;69.98;101387.82;1707085;82;21181;-72
2021/03/28 09:52:24;;;;;;;16.35;7.25;;;;;;;7.31;69.73;101381.05;1717038;82;21175;-74
2021/03/28 09:55:46;;;;;;;16.20;7.37;;;;;;;6.96;70.26;101384.25;1710567;82;21240;-73
2021/03/28 09:58:37;;;;;;;16.62;7.80;;;;;;;7.26;70.36;101372.16;1712527;80;22033;-72
2021/03/28 10:01:30;;;;;;;14.38;7.35;;;;;;;7.39;70.16;101380.04;1713243;82;22391;-74
2021/03/28 10:04:14;;;;;;;15.35;7.90;;;;;;;7.22;69.83;101368.53;1719175;82;21270;-74
2021/03/28 10:06:39;;;;;;;17.02;7.67;;;;;;;7.64;69.48;101358.64;1715530;82;21152;-74
2021/03/28 10:09:23;;;;;;;15.23;7.65;;;;;;;7.68;69.05;101346.97;1724287;81;28977;-75
2021/03/28 10:11:58;;;;;;;16.80;7.95;;;;;;;7.98;67.86;101351.83;1723191;81;21226;-73
2021/03/28 10:15:03;;;;;;;13.80;7.20;;;;;;;7.71;67.59;101352.01;1662151;81;21686;-73
2021/03/28 10:17:49;;;;;;;15.13;7.72;;;;;;;7.77;67.48;101354.66;1725424;81;21228;-72
2021/03/28 10:20:35;;;;;;;13.70;7.22;;;;;;;7.85;67.86;101360.24;1734410;81;21190;-74
2021/03/28 10:23:21;;;;;;;19.60;8.23;;;;;;;7.96;68.46;101367.38;1728740;81;21174;-74
2021/03/28 10:26:07;;;;;;;14.85;8.05;;;;;;;8.15;67.50;101376.93;1695963;81;21597;-75
2021/03/28 10:28:54;;;;;;;18.87;8.15;;;;;;;8.42;66.92;101366.20;1729967;81;21255;-75
2021/03/28 10:31:36;;;;;;;13.40;6.97;;;;;;;8.52;66.23;101355.87;1727143;81;28477;-73
2021/03/28 10:34:28;;;;;;;12.85;6.65;;;;;;;8.41;65.33;101365.01;1719656;81;21244;-73
2021/03/28 10:37:17;;;;;;;13.55;6.60;;;;;;;8.44;65.11;101364.81;1734832;81;22079;-73
2021/03/28 10:40:08;;;;;;;13.00;6.35;;;;;;;8.60;64.79;101365.83;1724809;81;21645;-74
2021/03/28 10:43:06;;;;;;;12.88;6.53;;;;;;;8.66;64.59;101362.75;1727421;81;21267;-73
2021/03/28 10:45:46;;;;;;;13.75;6.30;;;;;;;8.87;63.01;101360.33;1730190;81;21255;-74
2021/03/28 10:48:49;;;;;;;14.70;6.50;;;;;;;8.41;63.03;101355.80;1688936;83;21231;-77
2021/03/28 10:51:53;;;;;;;14.78;6.15;;;;;;;8.56;62.65;101362.59;1670749;84;21210;-75
2021/03/28 10:54:48;;;;;;;14.75;6.08;;;;;;;8.49;62.91;101372.37;1680543;84;21217;-74
2021/03/28 10:57:34;;;;;;;14.33;5.60;;;;;;;8.54;62.51;101377.64;1684420;83;21442;-72
2021/03/28 11:00:48;;;;;;;13.48;5.95;;;;;;;8.44;62.57;101373.55;1694579;83;21254;-75
2021/03/28 11:04:02;;;;;;;14.05;6.28;;;;;;;8.47;63.06;101358.01;1657322;85;21186;-72
2021/03/28 11:06:55;;;;;;;12.35;5.60;;;;;;;8.66;62.26;101388.25;1672092;84;21255;-71
2021/03/28 11:09:42;;;;;;;11.97;5.30;;;;;;;8.49;62.01;101372.37;1669301;83;21211;-72
2021/03/28 11:12:29;;;;;;;15.88;5.50;;;;;;;8.53;60.39;101391.78;1709316;82;21275;-71
2021/03/28 11:15:18;;;;;;;11.40;5.28;;;;;;;8.74;60.20;101377.98;1662997;84;21214;-72
2021/03/28 11:18:07;;;;;;;12.53;5.58;;;;;;;8.73;59.77;101373.20;1668293;84;21224;-73
2021/03/28 11:20:45;;;;;;;12.10;5.40;;;;;;;8.88;59.36;101368.56;1663184;84;21227;-72
2021/03/28 11:23:32;;;;;;;;;;;;;;;9.13;59.22;101390.44;1669221;84;21266;-72
2021/03/28 11:26:30;;;;;;;13.22;5.67;;;;;;;9.23;58.68;101369.48;1669397;84;21594;-73
2021/03/28 11:29:34;;;;;;;12.37;5.42;;;;;;;9.28;58.11;101398.50;1664206;85;21233;-75
2021/03/28 11:32:22;;;;;;;9.73;5.10;;;;;;;9.18;58.73;101363.73;1665558;84;21228;-74
2021/03/28 11:35:11;;;;;;;14.05;4.95;;;;;;;9.46;58.29;101372.98;1646332;85;21149;-73
2021/03/28 11:37:53;;;;;;;11.60;5.00;;;;;;;9.33;58.22;101379.20;1667093;84;21610;-73
2021/03/28 11:40:35;;;;;;;9.80;4.50;;;;;;;9.68;57.49;101363.78;1671713;85;21605;-74
2021/03/28 11:43:12;;;;;;;9.83;4.10;;;;;;;9.43;56.92;101366.63;1667486;84;21228;-74
2021/03/28 11:45:47;;;;;;;9.50;4.47;;;;;;;9.56;56.80;101371.33;1665933;84;21182;-73
2021/03/28 11:48:44;;;;;;;10.32;4.22;;;;;;;9.25;57.33;101389.99;1666368;84;21598;-74
2021/03/28 11:51:40;;;;;;;9.75;4.08;;;;;;;9.15;56.70;101374.88;1669220;85;21249;-73
2021/03/28 11:54:17;;;;;;;11.65;4.62;;;;;;;9.20;56.04;101373.21;1670317;84;21247;-72
2021/03/28 11:57:08;;;;;;;13.08;4.50;;;;;;;9.16;56.74;101367.80;1669600;84;21177;-73
2021/03/28 11:59:51;;;;;;;13.18;4.67;;;;;;;9.17;56.15;101381.35;1669835;84;21254;-73
2021/03/28 12:02:23;;;;;;;8.90;4.33;;;;;;;9.32;56.29;101388.09;1661118;84;21652;-72
2021/03/28 12:04:53;;;;;;;12.15;4.83;;;;;;;9.29;54.89;101376.92;1663106;84;21545;-71
2021/03/28 12:07:40;;;;;;;8.85;4.65;;;;;;;9.16;55.83;101363.84;1670886;84;22112;-73
2021/03/28 12:10:11;;;;;;;13.15;4.80;;;;;;;9.37;56.13;101376.33;1675150;83;21230;-74
2021/03/28 12:12:51;;;;;;;8.18;4.25;;;;;;;9.65;55.84;101365.34;1681088;84;21188;-73
2021/03/28 12:15:46;;;;;;;12.43;4.22;;;;;;;9.69;52.75;101397.58;1677506;84;21266;-73
2021/03/28 12:18:30;;;;;;;11.05;4.58;;;;;;;9.74;51.73;101378.30;1676738;84;21218;-73
2021/03/28 12:21:05;;;;;;;9.60;4.10;;;;;;;9.77;53.29;101361.37;1687453;83;21633;-72
2021/03/28 12:23:40;;;;;;;11.00;3.80;;;;;;;9.85;52.36;101358.95;1680179;84;21192;-73
2021/03/28 12:26:13;;;;;;;11.33;3.80;;;;;;;9.80;51.05;101373.00;1674584;84;21676;-74
2021/03/28 12:29:17;;;;;;;10.00;3.87;;;;;;;9.68;51.28;101378.28;1679046;84;21219;-73
2021/03/28 12:31:50;;;;;;;10.03;4.37;;;;;;;9.71;51.67;101382.49;1680437;83;21218;-73
2021/03/28 12:34:34;;;;;;;9.88;4.10;;;;;;;9.56;52.05;101367.86;1655111;85;21260;-72
2021/03/28 12:37:15;;;;;;;10.10;4.42;;;;;;;9.85;52.04;101369.51;1672940;84;21251;-73
2021/03/28 12:39:46;;;;;;;10.30;4.35;;;;;;;9.76;52.41;101374.22;1647734;84;21657;-72
2021/03/28 12:42:28;;;;;;;11.78;4.30;;;;;;;9.81;52.55;101364.13;1666524;84;21686;-73
2021/03/28 12:45:12;;;;;;;14.68;5.25;;;;;;;10.13;51.62;101381.83;1688925;83;21266;-73
2021/03/28 12:47:59;;;;;;;11.25;4.40;;;;;;;10.02;51.82;101374.77;1673702;84;21249;-74
2021/03/28 12:50:35;;;;;;;12.58;4.70;;;;;;;10.11;51.50;101363.97;1675659;83;21250;-72
2021/03/28 12:53:05;;;;;;;7.87;3.95;;;;;;;10.38;50.54;101378.11;1668725;84;21227;-72
2021/03/28 12:55:45;;;;;;;9.00;4.12;;;;;;;10.56;50.13;101361.22;1692196;83;21227;-71
2021/03/28 12:58:28;;;;;;;10.72;4.60;;;;;;;10.38;49.34;101382.89;1689960;83;21771;-72
2021/03/28 13:01:06;;;;;;;9.80;4.28;;;;;;;10.40;49.46;101377.00;1674799;84;21246;-71
2021/03/28 13:03:41;;;;;;;10.70;4.15;;;;;;;10.20;50.29;101364.55;1670536;84;21783;-71
2021/03/28 13:06:41;;;;;;;11.90;4.17;;;;;;;10.06;50.62;101390.23;1672914;84;21238;-71
2021/03/28 13:09:18;;;;;;;9.40;3.83;;;;;;;10.29;50.07;101363.80;1662861;84;21552;-72
2021/03/28 13:11:53;;;;;;;11.18;3.77;;;;;;;10.34;50.04;101371.39;1645478;86;21216;-70
2021/03/28 13:14:42;;;;;;;10.00;3.55;;;;;;;10.09;48.87;101368.54;1642480;86;21246;-73
2021/03/28 13:17:20;;;;;;;9.75;3.72;;;;;;;9.97;49.18;101376.45;1640809;86;22472;-72
2021/03/28 13:19:50;;;;;;;12.10;3.95;;;;;;;9.93;49.52;101385.59;1646623;86;21192;-74